createdAt,value
2017-03-30T00:00:31.923Z,12.37
2017-03-30T00:01:12.384Z,12.59
2017-03-30T00:01:52.879Z,12.62
2017-03-30T00:02:33.303Z,12.63
2017-03-30T00:04:46.047Z,12.63
2017-03-30T00:05:26.523Z,12.52
2017-03-30T00:06:07.102Z,12.52
2017-03-30T00:06:47.500Z,12.44
2017-03-30T00:07:27.959Z,12.31
2017-03-30T00:08:08.400Z,12.19
2017-03-30T00:08:48.921Z,12.2
2017-03-30T00:09:29.391Z,12.48
2017-03-30T00:10:09.864Z,12.52
2017-03-30T00:10:50.293Z,12.66
2017-03-30T00:11:30.738Z,12.7
2017-03-30T00:12:11.190Z,12.75
2017-03-30T00:12:51.718Z,12.77
2017-03-30T00:13:32.156Z,12.67
2017-03-30T00:14:12.611Z,12.59
2017-03-30T00:14:53.057Z,12.71
2017-03-30T00:15:33.532Z,12.82
2017-03-30T00:16:13.968Z,12.81
2017-03-30T00:16:54.424Z,12.81
2017-03-30T00:17:34.861Z,12.87
2017-03-30T00:18:15.308Z,12.77
2017-03-30T00:18:55.813Z,12.44
2017-03-30T00:19:36.268Z,12.15
2017-03-30T00:20:16.760Z,12.04
2017-03-30T00:20:57.185Z,12.15
2017-03-30T00:21:37.691Z,12.06
2017-03-30T00:22:18.132Z,12.12
2017-03-30T00:22:58.563Z,12.05
2017-03-30T00:23:39.024Z,12.04
2017-03-30T00:24:19.504Z,11.9
2017-03-30T00:24:59.918Z,11.93
2017-03-30T00:25:40.376Z,11.86
2017-03-30T00:26:20.832Z,11.89
2017-03-30T00:27:01.285Z,12.15
2017-03-30T00:28:38.655Z,12.46
2017-03-30T00:29:19.163Z,12.46
2017-03-30T00:29:59.562Z,12.48
2017-03-30T00:30:40.078Z,12.48
2017-03-30T00:31:20.562Z,12.41
2017-03-30T00:32:00.997Z,12.09
2017-03-30T00:32:41.525Z,12.11
2017-03-30T00:33:21.979Z,12.06
2017-03-30T00:34:02.424Z,11.99
2017-03-30T00:34:42.866Z,11.87
2017-03-30T00:35:23.301Z,11.93
2017-03-30T00:36:03.796Z,11.83
2017-03-30T00:36:44.218Z,11.87
2017-03-30T00:37:24.691Z,11.82
2017-03-30T00:38:05.134Z,12.01
2017-03-30T00:38:45.566Z,12.06
2017-03-30T00:39:26.036Z,12.12
2017-03-30T00:40:06.454Z,12.23
2017-03-30T00:40:46.912Z,12.34
2017-03-30T00:41:27.392Z,12.44
2017-03-30T00:42:07.879Z,12.09
2017-03-30T00:42:49.187Z,11.85
2017-03-30T00:43:29.671Z,11.97
2017-03-30T00:44:10.119Z,12.13
2017-03-30T00:44:50.569Z,12.33
2017-03-30T00:45:31.024Z,12.31
2017-03-30T00:46:11.466Z,12.16
2017-03-30T00:46:51.934Z,12.05
2017-03-30T00:47:32.405Z,12.02
2017-03-30T00:49:09.758Z,12.23
2017-03-30T00:49:50.215Z,12.26
2017-03-30T00:50:30.688Z,11.77
2017-03-30T00:51:11.133Z,11.74
2017-03-30T00:51:51.626Z,11.64
2017-03-30T00:52:32.033Z,11.62
2017-03-30T00:53:12.486Z,11.59
2017-03-30T00:53:52.935Z,11.57
2017-03-30T00:54:33.380Z,11.57
2017-03-30T00:55:13.852Z,11.83
2017-03-30T00:55:54.417Z,11.96
2017-03-30T00:56:34.909Z,11.83
2017-03-30T00:57:15.412Z,11.82
2017-03-30T00:57:55.917Z,11.77
2017-03-30T00:58:36.319Z,11.87
2017-03-30T00:59:16.778Z,11.82
2017-03-30T01:00:54.138Z,11.65
2017-03-30T01:01:34.586Z,11.54
2017-03-30T01:02:15.073Z,11.65
2017-03-30T01:04:27.726Z,11.77
2017-03-30T01:05:08.181Z,11.85
2017-03-30T01:05:49.647Z,11.87
2017-03-30T01:06:30.135Z,11.78
2017-03-30T01:07:10.605Z,11.94
2017-03-30T01:07:51.174Z,11.9
2017-03-30T01:08:31.571Z,12.01
2017-03-30T01:09:12.028Z,11.71
2017-03-30T01:09:52.488Z,11.52
2017-03-30T01:10:32.957Z,11.38
2017-03-30T01:11:13.459Z,11.27
2017-03-30T01:11:53.901Z,11.14
2017-03-30T01:12:34.348Z,10.98
2017-03-30T01:14:11.697Z,10.99
2017-03-30T01:14:52.217Z,10.96
2017-03-30T01:15:32.682Z,10.89
2017-03-30T01:16:13.143Z,10.98
2017-03-30T01:16:53.601Z,10.94
2017-03-30T01:17:34.073Z,10.84
2017-03-30T01:18:14.487Z,10.86
2017-03-30T01:18:54.935Z,10.8
2017-03-30T01:19:35.440Z,10.76
2017-03-30T01:20:15.917Z,10.88
2017-03-30T01:20:56.305Z,10.91
2017-03-30T01:21:36.761Z,10.94
2017-03-30T01:22:17.176Z,10.91
2017-03-30T01:22:57.624Z,10.86
2017-03-30T01:24:50.207Z,10.66
2017-03-30T01:27:02.856Z,10.6
2017-03-30T01:27:43.275Z,10.56
2017-03-30T01:28:23.766Z,10.73
2017-03-30T01:29:04.193Z,10.74
2017-03-30T01:29:44.735Z,10.76
2017-03-30T01:30:25.155Z,10.86
2017-03-30T01:31:05.636Z,10.62
2017-03-30T01:31:46.066Z,10.7
2017-03-30T01:32:26.528Z,10.62
2017-03-30T01:33:06.990Z,10.7
2017-03-30T01:33:47.433Z,10.77
2017-03-30T01:34:27.877Z,10.91
2017-03-30T01:35:08.314Z,10.91
2017-03-30T01:35:48.784Z,10.66
2017-03-30T01:36:29.243Z,10.63
2017-03-30T01:37:09.705Z,10.65
2017-03-30T01:37:50.171Z,10.59
2017-03-30T01:38:30.603Z,10.6
2017-03-30T01:39:11.014Z,10.66
2017-03-30T01:39:51.498Z,10.7
2017-03-30T01:40:31.977Z,10.65
2017-03-30T01:41:12.417Z,10.8
2017-03-30T01:41:52.871Z,10.71
2017-03-30T01:42:33.361Z,10.42
2017-03-30T01:43:13.854Z,10.47
2017-03-30T01:43:54.305Z,10.63
2017-03-30T01:44:34.740Z,10.51
2017-03-30T01:45:15.221Z,10.39
2017-03-30T01:45:55.724Z,10.36
2017-03-30T01:46:36.230Z,10.21
2017-03-30T01:47:16.633Z,10.1
2017-03-30T01:47:57.113Z,10.07
2017-03-30T01:48:37.558Z,10.01
2017-03-30T01:49:18.018Z,9.99
2017-03-30T01:49:58.469Z,10
2017-03-30T01:50:38.919Z,10.03
2017-03-30T01:51:19.378Z,10.06
2017-03-30T01:51:59.816Z,10.06
2017-03-30T01:52:40.316Z,10.04
2017-03-30T01:53:20.803Z,10.04
2017-03-30T01:54:01.223Z,10.01
2017-03-30T01:54:41.679Z,10.15
2017-03-30T01:55:22.108Z,10.22
2017-03-30T01:56:02.601Z,10.34
2017-03-30T01:56:43.076Z,10.43
2017-03-30T01:57:23.581Z,10.39
2017-03-30T01:58:04.032Z,10.32
2017-03-30T01:58:44.492Z,10.44
2017-03-30T01:59:24.936Z,10.52
2017-03-30T02:00:05.382Z,10.46
2017-03-30T02:00:45.860Z,10.65
2017-03-30T02:01:26.295Z,10.58
2017-03-30T02:02:06.757Z,10.56
2017-03-30T02:02:47.228Z,10.59
2017-03-30T02:03:27.660Z,10.53
2017-03-30T02:04:08.123Z,10.51
2017-03-30T02:04:48.555Z,10.46
2017-03-30T02:05:29.017Z,10.37
2017-03-30T02:06:09.466Z,10.51
2017-03-30T02:06:49.938Z,10.4
2017-03-30T02:07:30.445Z,10.52
2017-03-30T02:08:10.945Z,10.44
2017-03-30T02:08:51.396Z,10.47
2017-03-30T02:09:31.868Z,10.66
2017-03-30T02:10:12.309Z,10.51
2017-03-30T02:10:53.521Z,10.44
2017-03-30T02:11:34.010Z,10.43
2017-03-30T02:12:14.451Z,10.34
2017-03-30T02:12:54.895Z,10.42
2017-03-30T02:13:35.322Z,10.44
2017-03-30T02:14:15.755Z,10.44
2017-03-30T02:16:03.604Z,10.4
2017-03-30T02:16:44.023Z,10.36
2017-03-30T02:17:24.495Z,10.47
2017-03-30T02:18:04.947Z,10.4
2017-03-30T02:18:45.417Z,10.01
2017-03-30T02:19:25.819Z,10.06
2017-03-30T02:20:06.281Z,9.93
2017-03-30T02:20:46.737Z,9.93
2017-03-30T02:21:27.230Z,9.79
2017-03-30T02:22:07.707Z,9.85
2017-03-30T02:22:48.171Z,9.89
2017-03-30T02:23:28.642Z,10.07
2017-03-30T02:24:09.094Z,10.15
2017-03-30T02:24:49.530Z,10.36
2017-03-30T02:25:29.961Z,10.22
2017-03-30T02:26:10.418Z,10.15
2017-03-30T02:26:50.868Z,10.12
2017-03-30T02:27:31.335Z,10.32
2017-03-30T02:28:11.791Z,10.47
2017-03-30T02:28:52.246Z,10.44
2017-03-30T02:29:32.707Z,10.46
2017-03-30T02:30:13.112Z,10.47
2017-03-30T02:30:53.561Z,10.43
2017-03-30T02:31:34.005Z,10.4
2017-03-30T02:32:14.484Z,10.46
2017-03-30T02:32:54.917Z,10.37
2017-03-30T02:33:35.392Z,10.33
2017-03-30T02:34:15.913Z,10.46
2017-03-30T02:34:56.382Z,10.63
2017-03-30T02:35:36.892Z,10.59
2017-03-30T02:36:17.896Z,10.42
2017-03-30T02:36:58.357Z,10.36
2017-03-30T02:37:38.846Z,10.24
2017-03-30T02:38:19.299Z,10.1
2017-03-30T02:38:59.731Z,10.24
2017-03-30T02:39:40.170Z,10.25
2017-03-30T02:40:20.633Z,10.14
2017-03-30T02:41:01.113Z,10.22
2017-03-30T02:41:41.558Z,10.18
2017-03-30T02:42:22.033Z,10.21
2017-03-30T02:43:02.500Z,10.21
2017-03-30T02:43:42.962Z,10.01
2017-03-30T02:44:23.401Z,9.83
2017-03-30T02:45:03.859Z,10.03
2017-03-30T02:46:51.361Z,10.17
2017-03-30T02:47:31.812Z,9.99
2017-03-30T02:48:12.300Z,10.04
2017-03-30T02:48:52.743Z,9.96
2017-03-30T02:49:33.262Z,9.88
2017-03-30T02:50:13.790Z,9.88
2017-03-30T02:50:54.278Z,9.79
2017-03-30T02:51:35.366Z,9.71
2017-03-30T02:52:15.824Z,9.78
2017-03-30T02:52:56.263Z,9.79
2017-03-30T02:53:36.726Z,9.89
2017-03-30T02:54:17.158Z,10.12
2017-03-30T02:54:57.616Z,9.94
2017-03-30T02:55:38.070Z,10.12
2017-03-30T02:57:25.525Z,10.4
2017-03-30T02:58:06.014Z,10.34
2017-03-30T02:58:46.488Z,9.99
2017-03-30T02:59:26.930Z,10.01
2017-03-30T03:00:07.438Z,9.99
2017-03-30T03:00:47.978Z,9.94
2017-03-30T03:01:28.425Z,9.88
2017-03-30T03:02:08.953Z,9.78
2017-03-30T03:04:06.596Z,9.82
2017-03-30T03:06:19.291Z,9.85
2017-03-30T03:06:59.705Z,9.85
2017-03-30T03:07:40.186Z,9.96
2017-03-30T03:08:20.641Z,9.94
2017-03-30T03:09:01.103Z,10.01
2017-03-30T03:09:41.563Z,10
2017-03-30T03:10:22.059Z,9.99
2017-03-30T03:11:02.480Z,10.06
2017-03-30T03:11:42.969Z,10.12
2017-03-30T03:13:20.352Z,9.99
2017-03-30T03:14:00.775Z,10.04
2017-03-30T03:14:41.246Z,10
2017-03-30T03:15:21.680Z,10.15
2017-03-30T03:16:02.122Z,10.15
2017-03-30T03:16:42.566Z,10.09
2017-03-30T03:17:23.007Z,10.12
2017-03-30T03:18:03.461Z,10.07
2017-03-30T03:18:43.932Z,10.18
2017-03-30T03:19:24.396Z,10.01
2017-03-30T03:20:04.873Z,10.01
2017-03-30T03:20:45.317Z,10.1
2017-03-30T03:21:25.742Z,10.21
2017-03-30T03:22:06.240Z,10.19
2017-03-30T03:22:46.691Z,10.4
2017-03-30T03:23:27.127Z,10.39
2017-03-30T03:24:07.610Z,10.47
2017-03-30T03:24:48.048Z,10.43
2017-03-30T03:25:28.456Z,10.44
2017-03-30T03:26:08.909Z,10.43
2017-03-30T03:26:49.372Z,10.22
2017-03-30T03:27:29.903Z,10.17
2017-03-30T03:28:10.360Z,10.18
2017-03-30T03:28:50.827Z,10.33
2017-03-30T03:29:31.228Z,10.1
2017-03-30T03:30:11.828Z,10.01
2017-03-30T03:30:52.294Z,10.1
2017-03-30T03:31:32.759Z,10.03
2017-03-30T03:32:13.258Z,10.17
2017-03-30T03:32:53.675Z,10.19
2017-03-30T03:33:34.099Z,10.26
2017-03-30T03:34:14.582Z,10.26
2017-03-30T03:34:55.029Z,10.36
2017-03-30T03:35:35.457Z,10.22
2017-03-30T03:36:15.953Z,10.34
2017-03-30T03:36:56.401Z,10.33
2017-03-30T03:37:36.873Z,10.32
2017-03-30T03:38:17.342Z,10.17
2017-03-30T03:38:57.782Z,10.18
2017-03-30T03:39:38.250Z,10.15
2017-03-30T03:40:18.678Z,10.06
2017-03-30T03:40:59.119Z,10.12
2017-03-30T03:41:39.562Z,10.18
2017-03-30T03:42:20.031Z,10.03
2017-03-30T03:43:00.489Z,9.94
2017-03-30T03:43:40.886Z,9.91
2017-03-30T03:44:21.468Z,10.06
2017-03-30T03:45:01.832Z,10.1
2017-03-30T03:45:42.319Z,10.12
2017-03-30T03:46:22.772Z,10.17
2017-03-30T03:47:03.197Z,10.15
2017-03-30T03:47:43.633Z,10.07
2017-03-30T03:48:24.091Z,10.1
2017-03-30T03:49:04.549Z,9.94
2017-03-30T03:49:45.005Z,9.81
2017-03-30T03:50:25.470Z,9.82
2017-03-30T03:51:05.929Z,9.88
2017-03-30T03:51:46.385Z,9.88
2017-03-30T03:52:26.813Z,9.89
2017-03-30T03:53:07.272Z,10.06
2017-03-30T03:53:47.756Z,10.09
2017-03-30T03:54:28.177Z,10.09
2017-03-30T03:55:08.638Z,10.22
2017-03-30T03:55:49.057Z,10.21
2017-03-30T03:56:29.519Z,10.21
2017-03-30T03:57:09.942Z,10.1
2017-03-30T03:57:50.445Z,10.06
2017-03-30T03:58:30.918Z,10.01
2017-03-30T03:59:11.369Z,9.91
2017-03-30T03:59:51.847Z,9.83
2017-03-30T04:00:32.272Z,9.82
2017-03-30T04:01:12.754Z,9.78
2017-03-30T04:01:53.225Z,9.85
2017-03-30T04:02:33.681Z,9.85
2017-03-30T04:03:14.174Z,9.86
2017-03-30T04:03:54.648Z,9.81
2017-03-30T04:04:35.117Z,9.78
2017-03-30T04:05:15.571Z,9.66
2017-03-30T04:05:56.083Z,9.79
2017-03-30T04:08:08.788Z,9.76
2017-03-30T04:08:49.206Z,9.78
2017-03-30T04:09:29.710Z,9.78
2017-03-30T04:10:10.222Z,9.76
2017-03-30T04:10:50.661Z,9.73
2017-03-30T04:11:31.132Z,9.73
2017-03-30T04:12:11.618Z,9.76
2017-03-30T04:12:52.041Z,9.63
2017-03-30T04:13:32.533Z,9.67
2017-03-30T04:14:12.975Z,9.63
2017-03-30T04:14:53.440Z,9.58
2017-03-30T04:15:33.914Z,9.67
2017-03-30T04:16:14.368Z,9.64
2017-03-30T04:16:54.811Z,9.66
2017-03-30T04:17:35.258Z,9.68
2017-03-30T04:18:15.711Z,9.71
2017-03-30T04:18:56.193Z,9.64
2017-03-30T04:19:36.655Z,9.5
2017-03-30T04:20:17.165Z,9.39
2017-03-30T04:20:57.654Z,9.34
2017-03-30T04:21:38.117Z,9.4
2017-03-30T04:22:18.561Z,9.45
2017-03-30T04:22:58.989Z,9.57
2017-03-30T04:23:39.462Z,9.58
2017-03-30T04:24:19.911Z,9.67
2017-03-30T04:25:00.354Z,9.66
2017-03-30T04:25:40.806Z,9.67
2017-03-30T04:26:21.244Z,9.79
2017-03-30T04:27:01.688Z,9.85
2017-03-30T04:27:42.189Z,9.88
2017-03-30T04:28:22.610Z,9.71
2017-03-30T04:29:03.059Z,9.75
2017-03-30T04:29:43.562Z,9.68
2017-03-30T04:30:23.987Z,9.68
2017-03-30T04:31:04.410Z,9.71
2017-03-30T04:31:44.890Z,9.64
2017-03-30T04:32:25.346Z,9.7
2017-03-30T04:33:05.794Z,9.58
2017-03-30T04:33:46.255Z,9.61
2017-03-30T04:34:26.684Z,9.53
2017-03-30T04:35:07.118Z,9.35
2017-03-30T04:35:47.583Z,9.3
2017-03-30T04:36:28.061Z,9.27
2017-03-30T04:38:20.611Z,9.31
2017-03-30T04:39:01.070Z,9.34
2017-03-30T04:39:41.561Z,9.3
2017-03-30T04:40:22.019Z,9.24
2017-03-30T04:41:02.509Z,9.32
2017-03-30T04:41:42.944Z,9.39
2017-03-30T04:42:23.434Z,9.39
2017-03-30T04:43:03.872Z,9.24
2017-03-30T04:43:44.328Z,9.23
2017-03-30T04:45:36.829Z,8.87
2017-03-30T04:46:17.285Z,8.83
2017-03-30T04:46:57.715Z,8.84
2017-03-30T04:47:38.200Z,8.9
2017-03-30T04:48:18.610Z,8.94
2017-03-30T04:48:59.089Z,9.04
2017-03-30T04:50:56.707Z,9.27
2017-03-30T04:51:37.141Z,9.32
2017-03-30T04:52:17.628Z,9.39
2017-03-30T04:52:58.060Z,9.52
2017-03-30T04:53:38.537Z,9.56
2017-03-30T04:54:19.028Z,9.53
2017-03-30T04:54:59.513Z,9.4
2017-03-30T04:55:39.959Z,9.5
2017-03-30T04:56:20.441Z,9.5
2017-03-30T04:57:00.908Z,9.66
2017-03-30T04:57:41.348Z,9.58
2017-03-30T04:58:21.828Z,9.67
2017-03-30T04:59:02.350Z,9.71
2017-03-30T04:59:42.793Z,9.63
2017-03-30T05:00:23.238Z,9.63
2017-03-30T05:01:03.698Z,9.81
2017-03-30T05:01:44.108Z,9.82
2017-03-30T05:02:24.663Z,9.82
2017-03-30T05:03:05.104Z,9.73
2017-03-30T05:03:45.672Z,9.73
2017-03-30T05:04:26.075Z,9.76
2017-03-30T05:05:06.553Z,9.79
2017-03-30T05:05:46.995Z,9.75
2017-03-30T05:06:27.489Z,9.73
2017-03-30T05:07:07.915Z,9.78
2017-03-30T05:07:48.337Z,9.71
2017-03-30T05:08:28.771Z,9.76
2017-03-30T05:09:09.257Z,9.82
2017-03-30T05:09:49.713Z,9.73
2017-03-30T05:11:47.373Z,9.66
2017-03-30T05:12:27.785Z,9.73
2017-03-30T05:13:08.249Z,9.73
2017-03-30T05:15:05.845Z,9.63
2017-03-30T05:15:46.292Z,9.61
2017-03-30T05:16:26.724Z,9.5
2017-03-30T05:17:07.241Z,9.53
2017-03-30T05:17:47.690Z,9.48
2017-03-30T05:18:28.162Z,9.49
2017-03-30T05:19:08.654Z,9.35
2017-03-30T05:19:50.005Z,9.49
2017-03-30T05:20:30.470Z,9.5
2017-03-30T05:21:10.928Z,9.49
2017-03-30T05:21:51.399Z,9.5
2017-03-30T05:22:31.795Z,9.52
2017-03-30T05:23:12.249Z,9.48
2017-03-30T05:23:52.719Z,9.56
2017-03-30T05:24:33.114Z,9.5
2017-03-30T05:25:13.596Z,9.6
2017-03-30T05:25:54.030Z,9.63
2017-03-30T05:27:51.798Z,9.68
2017-03-30T05:28:32.085Z,9.66
2017-03-30T05:29:12.528Z,9.64
2017-03-30T05:29:53.051Z,9.58
2017-03-30T05:30:33.520Z,9.57
2017-03-30T05:31:13.959Z,9.66
2017-03-30T05:31:54.405Z,9.58
2017-03-30T05:32:34.850Z,9.58
2017-03-30T05:33:15.349Z,9.63
2017-03-30T05:33:55.787Z,9.57
2017-03-30T05:35:53.522Z,9.76
2017-03-30T05:36:34.023Z,9.78
2017-03-30T05:37:14.458Z,9.75
2017-03-30T05:37:54.955Z,9.81
2017-03-30T05:38:35.419Z,9.67
2017-03-30T05:39:15.844Z,9.53
2017-03-30T05:39:56.337Z,9.34
2017-03-30T05:40:36.841Z,9.25
2017-03-30T05:41:17.300Z,9.28
2017-03-30T05:41:57.759Z,9.3
2017-03-30T05:42:38.261Z,9.53
2017-03-30T05:43:18.749Z,9.46
2017-03-30T05:43:59.218Z,9.66
2017-03-30T05:44:39.655Z,9.66
2017-03-30T05:45:20.117Z,9.81
2017-03-30T05:46:00.563Z,9.71
2017-03-30T05:46:40.981Z,9.76
2017-03-30T05:47:21.495Z,9.93
2017-03-30T05:48:01.925Z,10.06
2017-03-30T05:48:42.383Z,10.22
2017-03-30T05:50:20.065Z,10.46
2017-03-30T05:51:00.532Z,10.59
2017-03-30T05:51:40.986Z,10.91
2017-03-30T05:52:21.500Z,10.95
2017-03-30T05:53:01.985Z,10.92
2017-03-30T05:53:42.412Z,11.03
2017-03-30T05:54:22.968Z,10.66
2017-03-30T05:55:03.356Z,10.98
2017-03-30T05:55:43.839Z,10.76
2017-03-30T05:56:24.294Z,11.19
2017-03-30T05:57:04.754Z,11.21
2017-03-30T05:57:45.190Z,11.01
2017-03-30T05:58:25.669Z,10.92
2017-03-30T05:59:06.112Z,11.11
2017-03-30T05:59:46.574Z,11.25
2017-03-30T06:00:27.009Z,11.39
2017-03-30T06:01:07.497Z,11.32
2017-03-30T06:01:47.929Z,11.44
2017-03-30T06:02:28.392Z,11.54
2017-03-30T06:03:08.867Z,11.38
2017-03-30T06:03:49.327Z,11.54
2017-03-30T06:04:29.772Z,11.43
2017-03-30T06:05:10.224Z,11.74
2017-03-30T06:05:50.672Z,11.49
2017-03-30T06:06:31.111Z,11.38
2017-03-30T06:07:11.598Z,11.28
2017-03-30T06:07:52.027Z,11.03
2017-03-30T06:08:32.539Z,11.24
2017-03-30T06:09:12.986Z,11.34
2017-03-30T06:09:53.427Z,11.11
2017-03-30T06:10:33.919Z,11.38
2017-03-30T06:11:14.401Z,11.5
2017-03-30T06:11:54.873Z,11.59
2017-03-30T06:12:35.329Z,11.52
2017-03-30T06:13:16.541Z,11.39
2017-03-30T06:13:56.983Z,11.52
2017-03-30T06:14:37.461Z,11.53
2017-03-30T06:15:17.890Z,11.43
2017-03-30T06:17:10.425Z,10.92
2017-03-30T06:17:50.955Z,10.98
2017-03-30T06:18:31.364Z,10.89
2017-03-30T06:19:11.782Z,10.74
2017-03-30T06:19:52.232Z,10.89
2017-03-30T06:20:32.703Z,10.94
2017-03-30T06:21:13.183Z,10.89
2017-03-30T06:21:53.644Z,10.95
2017-03-30T06:22:34.046Z,11.07
2017-03-30T06:23:14.554Z,11.07
2017-03-30T06:25:27.264Z,11.07
2017-03-30T06:26:07.652Z,11.03
2017-03-30T06:26:48.124Z,11.03
2017-03-30T06:27:28.577Z,11.16
2017-03-30T06:28:09.107Z,11.25
2017-03-30T06:28:49.602Z,11.41
2017-03-30T06:29:30.049Z,11.5
2017-03-30T06:30:10.542Z,11.65
2017-03-30T06:30:51.026Z,11.64
2017-03-30T06:31:31.467Z,11.75
2017-03-30T06:32:11.903Z,11.74
2017-03-30T06:32:52.397Z,11.61
2017-03-30T06:33:32.825Z,11.68
2017-03-30T06:34:13.311Z,11.67
2017-03-30T06:34:53.772Z,11.52
2017-03-30T06:35:34.253Z,11.52
2017-03-30T06:36:14.676Z,11.47
2017-03-30T06:36:55.205Z,11.46
2017-03-30T06:37:35.771Z,11.47
2017-03-30T06:38:16.230Z,11.44
2017-03-30T06:38:56.686Z,11.5
2017-03-30T06:39:37.136Z,11.47
2017-03-30T06:40:17.660Z,11.49
2017-03-30T06:40:58.156Z,11.5
2017-03-30T06:41:38.592Z,11.65
2017-03-30T06:42:19.068Z,11.59
2017-03-30T06:42:59.523Z,11.64
2017-03-30T06:43:40.006Z,11.72
2017-03-30T06:44:20.524Z,11.74
2017-03-30T06:45:00.971Z,11.77
2017-03-30T06:45:41.399Z,11.83
2017-03-30T06:46:21.877Z,11.82
2017-03-30T06:47:03.201Z,11.89
2017-03-30T06:47:44.050Z,11.93
2017-03-30T06:48:24.634Z,11.9
2017-03-30T06:49:05.200Z,12.04
2017-03-30T06:49:45.665Z,11.99
2017-03-30T06:50:26.303Z,12.02
2017-03-30T06:52:39.432Z,12.09
2017-03-30T06:53:20.095Z,12.13
2017-03-30T06:54:00.533Z,12.08
2017-03-30T06:54:40.975Z,12.16
2017-03-30T06:55:21.523Z,12.24
2017-03-30T06:56:01.969Z,12.24
2017-03-30T06:56:42.423Z,12.27
2017-03-30T06:57:22.886Z,12.3
2017-03-30T06:58:03.304Z,12.3
2017-03-30T06:58:44.299Z,12.3
2017-03-30T06:59:24.771Z,12.45
2017-03-30T07:00:05.231Z,12.37
2017-03-30T07:00:45.687Z,12.45
2017-03-30T07:01:26.107Z,12.62
2017-03-30T07:02:06.547Z,12.59
2017-03-30T07:02:46.981Z,12.62
2017-03-30T07:03:27.452Z,12.62
2017-03-30T07:04:07.923Z,12.84
2017-03-30T07:04:48.360Z,13.04
2017-03-30T07:05:28.842Z,13.41
2017-03-30T07:06:09.372Z,13.89
2017-03-30T07:06:49.855Z,13.95
2017-03-30T07:07:30.359Z,14.13
2017-03-30T07:08:10.816Z,14.37
2017-03-30T07:08:51.333Z,14.38
2017-03-30T07:09:31.771Z,14.07
2017-03-30T07:10:12.256Z,14.31
2017-03-30T07:10:52.683Z,14.52
2017-03-30T07:11:33.120Z,14.69
2017-03-30T07:12:13.574Z,14.5
2017-03-30T07:12:54.000Z,14.8
2017-03-30T07:13:34.491Z,14.99
2017-03-30T07:14:14.946Z,15.21
2017-03-30T07:14:55.402Z,15.24
2017-03-30T07:15:35.893Z,15.28
2017-03-30T07:17:33.556Z,14.99
2017-03-30T07:18:14.051Z,15.11
2017-03-30T07:18:54.546Z,14.95
2017-03-30T07:19:35.009Z,14.99
2017-03-30T07:20:15.477Z,15.03
2017-03-30T07:20:55.926Z,15.02
2017-03-30T07:21:36.616Z,15.13
2017-03-30T07:22:16.960Z,15.31
2017-03-30T07:22:57.427Z,15.39
2017-03-30T07:23:37.878Z,15.19
2017-03-30T07:24:18.322Z,15.54
2017-03-30T07:24:59.555Z,15.66
2017-03-30T07:25:40.015Z,15.35
2017-03-30T07:26:20.550Z,15.57
2017-03-30T07:27:01.019Z,15.79
2017-03-30T07:27:41.499Z,16.2
2017-03-30T07:28:21.955Z,16.45
2017-03-30T07:29:02.447Z,16.18
2017-03-30T07:29:42.921Z,16.16
2017-03-30T07:30:23.368Z,16.48
2017-03-30T07:31:03.885Z,16.41
2017-03-30T07:31:44.603Z,17.11
2017-03-30T07:32:24.837Z,16.8
2017-03-30T07:33:05.281Z,16.92
2017-03-30T07:33:45.773Z,16.8
2017-03-30T07:34:26.595Z,16.98
2017-03-30T07:35:07.830Z,16.99
2017-03-30T07:36:55.439Z,18.59
2017-03-30T07:37:36.017Z,16.85
2017-03-30T07:38:16.678Z,17.08
2017-03-30T07:40:14.736Z,18.17
2017-03-30T07:40:55.150Z,19.05
2017-03-30T07:41:35.679Z,18.13
2017-03-30T07:42:16.145Z,17.97
2017-03-30T07:42:56.688Z,18.29
2017-03-30T07:43:37.159Z,17.99
2017-03-30T07:44:17.808Z,18.7
2017-03-30T07:44:58.314Z,19.8
2017-03-30T07:45:38.775Z,18.4
2017-03-30T07:46:19.258Z,17.38
2017-03-30T07:46:59.754Z,17.35
2017-03-30T07:47:40.266Z,17.5
2017-03-30T07:48:20.765Z,17.38
2017-03-30T07:49:01.272Z,17.36
2017-03-30T07:50:49.366Z,18.17
2017-03-30T07:51:29.774Z,18.29
2017-03-30T07:52:10.295Z,18.19
2017-03-30T07:52:50.855Z,18.82
2017-03-30T07:53:31.642Z,19.2
2017-03-30T07:55:19.165Z,19.2
2017-03-30T07:55:59.612Z,20.23
2017-03-30T07:56:40.060Z,20.43
2017-03-30T07:57:20.594Z,19.78
2017-03-30T07:58:01.089Z,20.25
2017-03-30T07:58:41.617Z,20.49
2017-03-30T07:59:22.101Z,19.36
2017-03-30T08:00:02.584Z,19.79
2017-03-30T08:00:43.139Z,21.11
2017-03-30T08:01:23.567Z,21.81
2017-03-30T08:02:04.051Z,21.79
2017-03-30T08:02:44.542Z,21.13
2017-03-30T08:03:25.108Z,20.35
2017-03-30T08:04:05.603Z,20.54
2017-03-30T08:04:46.085Z,20.46
2017-03-30T08:05:28.118Z,20.66
2017-03-30T08:06:08.571Z,20.1
2017-03-30T08:08:02.301Z,21.35
2017-03-30T08:08:42.238Z,21.78
2017-03-30T08:09:22.696Z,21.11
2017-03-30T08:10:03.258Z,20.35
2017-03-30T08:10:43.931Z,21.27
2017-03-30T08:11:24.366Z,20.81
2017-03-30T08:12:04.830Z,20.65
2017-03-30T08:12:45.487Z,20.8
2017-03-30T08:13:26.672Z,20.99
2017-03-30T08:14:08.807Z,21.11
2017-03-30T08:14:49.888Z,20.81
2017-03-30T08:15:30.414Z,21.11
2017-03-30T08:16:11.042Z,21.24
2017-03-30T08:16:51.613Z,21.3
2017-03-30T08:17:32.471Z,21.41
2017-03-30T08:18:12.839Z,20.09
2017-03-30T08:18:53.403Z,21.08
2017-03-30T08:19:34.390Z,21.66
2017-03-30T08:20:14.991Z,21.76
2017-03-30T08:20:55.596Z,21.66
2017-03-30T08:21:36.138Z,21.95
2017-03-30T08:22:16.831Z,21.61
2017-03-30T08:22:57.470Z,22.07
2017-03-30T08:23:38.093Z,22.32
2017-03-30T08:24:18.687Z,22.32
2017-03-30T08:24:59.145Z,22.68
2017-03-30T08:25:39.676Z,22.38
2017-03-30T08:26:20.159Z,22.04
2017-03-30T08:27:00.616Z,21.88
2017-03-30T08:27:41.209Z,22.07
2017-03-30T08:28:21.902Z,22.39
2017-03-30T08:29:02.327Z,22.82
2017-03-30T08:29:42.830Z,22.84
2017-03-30T08:30:23.420Z,22.62
2017-03-30T08:31:03.958Z,22.46
2017-03-30T08:31:44.463Z,22.39
2017-03-30T08:32:25.043Z,23.15
2017-03-30T08:33:05.674Z,23.34
2017-03-30T08:33:46.332Z,24.23
2017-03-30T08:34:27.122Z,24.31
2017-03-30T08:35:08.845Z,23.02
2017-03-30T08:35:49.398Z,22.69
2017-03-30T08:36:30.103Z,24.6
2017-03-30T08:38:22.730Z,23.22
2017-03-30T08:39:03.196Z,23.09
2017-03-30T08:39:43.686Z,23.11
2017-03-30T08:40:24.233Z,22.96
2017-03-30T08:41:04.766Z,22.68
2017-03-30T08:41:45.243Z,22.14
2017-03-30T08:42:25.776Z,22.94
2017-03-30T08:43:06.264Z,22.44
2017-03-30T08:43:46.705Z,23.31
2017-03-30T08:44:27.166Z,23.49
2017-03-30T08:45:07.635Z,23.23
2017-03-30T08:47:00.186Z,22.14
2017-03-30T08:47:40.699Z,21.9
2017-03-30T08:48:21.226Z,21.46
2017-03-30T08:49:01.743Z,21.34
2017-03-30T08:49:42.294Z,21.26
2017-03-30T08:50:22.753Z,20.9
2017-03-30T08:51:03.253Z,20.54
2017-03-30T08:51:43.772Z,20.68
2017-03-30T08:52:24.279Z,20.81
2017-03-30T08:53:04.843Z,21.06
2017-03-30T08:53:45.430Z,20.86
2017-03-30T08:54:25.899Z,21.24
2017-03-30T08:55:06.381Z,21.88
2017-03-30T08:55:46.908Z,21.59
2017-03-30T08:56:27.565Z,21.71
2017-03-30T08:57:07.955Z,21.5
2017-03-30T08:57:48.617Z,22.54
2017-03-30T08:58:29.160Z,22.47
2017-03-30T08:59:09.818Z,22.46
2017-03-30T08:59:50.276Z,22.65
2017-03-30T09:00:30.823Z,23.75
2017-03-30T09:01:11.242Z,24.19
2017-03-30T09:01:51.766Z,24.39
2017-03-30T09:02:32.407Z,24.07
2017-03-30T09:03:13.184Z,23.67
2017-03-30T09:05:25.991Z,25.52
2017-03-30T09:06:07.194Z,24.57
2017-03-30T09:06:47.834Z,24.29
2017-03-30T09:07:28.311Z,24.39
2017-03-30T09:08:09.045Z,24.61
2017-03-30T09:08:49.587Z,24.54
2017-03-30T09:09:30.780Z,24.26
2017-03-30T09:10:11.234Z,25.06
2017-03-30T09:10:51.831Z,24.71
2017-03-30T09:11:32.252Z,22.89
2017-03-30T09:12:12.723Z,22.84
2017-03-30T09:12:53.528Z,22.27
2017-03-30T09:13:34.138Z,21.99
2017-03-30T09:14:14.791Z,21.72
2017-03-30T09:14:55.334Z,21.48
2017-03-30T09:15:35.820Z,21.64
2017-03-30T09:16:16.319Z,21.63
2017-03-30T09:16:56.778Z,21.14
2017-03-30T09:17:37.261Z,21.05
2017-03-30T09:18:20.383Z,20.38
2017-03-30T09:19:04.714Z,20.56
2017-03-30T09:19:45.910Z,21.36
2017-03-30T09:20:27.985Z,21.46
2017-03-30T09:21:08.550Z,20.98
2017-03-30T09:21:49.119Z,20.42
2017-03-30T09:22:29.865Z,20.39
2017-03-30T09:23:11.487Z,19.94
2017-03-30T09:23:52.017Z,20.72
2017-03-30T09:24:32.602Z,20.62
2017-03-30T09:26:25.233Z,20.93
2017-03-30T09:28:22.859Z,20.64
2017-03-30T09:29:03.497Z,20.79
2017-03-30T09:31:01.175Z,20.31
2017-03-30T09:31:41.607Z,20.43
2017-03-30T09:32:22.225Z,20.42
2017-03-30T09:33:03.322Z,20.33
2017-03-30T09:33:44.023Z,20.31
2017-03-30T09:34:24.506Z,19.95
2017-03-30T09:36:01.914Z,20.43